Terminal Aerodrome Forecast
Issued by NWS Sterling, VA

Current Version | Previous Version | Graphics & Text | Print | Product List | Glossary On
Versions: 1 2 3 4 5 6 7 8 9 10 11 12 13 14 15 16 17 18 19 20 21 22 23
000
FTUS41 KLWX 282100 AAA
TAFDCA
TAF AMD
KDCA 282101Z 2821/2918 28018G27KT P6SM BKN060
     FM290100 31012KT P6SM BKN060
     FM290400 31009KT P6SM SCT090
     FM291500 31010KT P6SM SCT050=

USA.gov is the U.S. government's official web portal to all federal, state and local government web resources and services.